createdAt,value
2023-07-12T00:01:19.518Z,26.99
2023-07-12T00:03:48.588Z,27.00
2023-07-12T00:06:19.696Z,26.95
2023-07-12T00:08:48.422Z,26.97
2023-07-12T00:11:19.112Z,26.96
2023-07-12T00:13:47.269Z,26.96
2023-07-12T00:16:24.067Z,26.96
2023-07-12T00:18:52.311Z,26.94
2023-07-12T00:21:24.170Z,26.94
2023-07-12T00:23:53.863Z,26.90
2023-07-12T00:26:24.681Z,26.87
2023-07-12T00:28:53.314Z,26.90
2023-07-12T00:31:24.458Z,26.92
2023-07-12T00:33:53.281Z,26.89
2023-07-12T00:36:23.812Z,26.88
2023-07-12T00:38:52.287Z,26.87
2023-07-12T00:41:30.988Z,26.87
2023-07-12T00:44:06.525Z,26.87
2023-07-12T00:46:40.955Z,26.85
2023-07-12T00:49:11.335Z,26.83
2023-07-12T00:51:49.170Z,26.84
2023-07-12T00:54:18.920Z,26.82
2023-07-12T00:56:48.487Z,26.81
2023-07-12T00:59:23.814Z,26.81
2023-07-12T01:01:56.246Z,26.77
2023-07-12T01:04:33.375Z,26.74
2023-07-12T01:07:01.451Z,26.77
2023-07-12T01:09:30.067Z,26.57
2023-07-12T01:11:59.103Z,26.76
2023-07-12T01:14:28.117Z,26.74
2023-07-12T01:17:00.848Z,26.76
2023-07-12T01:19:29.353Z,26.73
2023-07-12T01:21:58.928Z,26.74
2023-07-12T01:24:29.221Z,26.72
2023-07-12T01:27:01.634Z,26.72
2023-07-12T01:29:31.565Z,26.53
2023-07-12T01:31:59.879Z,26.70
2023-07-12T01:34:30.217Z,26.68
2023-07-12T01:36:59.784Z,26.69
2023-07-12T01:39:27.767Z,26.67
2023-07-12T01:41:55.727Z,26.67
2023-07-12T01:44:23.667Z,26.66
2023-07-12T01:46:53.489Z,26.65
2023-07-12T01:49:21.565Z,26.64
2023-07-12T01:51:49.715Z,26.64
2023-07-12T01:54:19.100Z,26.64
2023-07-12T01:56:47.333Z,26.62
2023-07-12T01:59:15.374Z,26.61
2023-07-12T02:01:43.550Z,26.61
2023-07-12T02:04:11.609Z,26.60
2023-07-12T02:06:39.661Z,26.60
2023-07-12T02:09:08.142Z,26.59
2023-07-12T02:11:37.571Z,26.61
2023-07-12T02:14:05.603Z,26.59
2023-07-12T02:16:33.690Z,26.59
2023-07-12T02:19:01.701Z,26.59
2023-07-12T02:21:29.728Z,26.58
2023-07-12T02:23:58.004Z,26.58
2023-07-12T02:26:26.171Z,26.57
2023-07-12T02:28:55.502Z,26.57
2023-07-12T02:31:26.159Z,26.56
2023-07-12T02:33:57.612Z,26.56
2023-07-12T02:36:26.081Z,26.55
2023-07-12T02:38:54.176Z,26.53
2023-07-12T02:41:22.250Z,26.53
2023-07-12T02:43:50.278Z,26.54
2023-07-12T02:46:19.868Z,26.55
2023-07-12T02:48:48.224Z,26.53
2023-07-12T02:51:16.324Z,26.52
2023-07-12T02:53:44.330Z,26.52
2023-07-12T02:56:12.433Z,26.53
2023-07-12T02:58:40.550Z,26.53
2023-07-12T03:01:08.884Z,26.52
2023-07-12T03:03:38.547Z,26.53
2023-07-12T03:06:08.914Z,26.54
2023-07-12T03:08:37.408Z,26.54
2023-07-12T03:11:07.137Z,26.53
2023-07-12T03:13:35.723Z,26.56
2023-07-12T03:16:06.074Z,26.53
2023-07-12T03:18:34.819Z,26.60
2023-07-12T03:21:07.064Z,26.62
2023-07-12T03:23:36.501Z,26.65
2023-07-12T03:26:04.836Z,26.67
2023-07-12T03:28:33.098Z,26.70
2023-07-12T03:31:02.604Z,26.73
2023-07-12T03:33:31.636Z,26.76
2023-07-12T03:36:00.527Z,26.77
2023-07-12T03:38:32.000Z,26.62
2023-07-12T03:41:02.729Z,26.83
2023-07-12T03:43:30.781Z,26.83
2023-07-12T03:45:58.965Z,26.85
2023-07-12T03:48:27.555Z,26.45
2023-07-12T03:50:56.460Z,26.91
2023-07-12T03:53:25.468Z,26.90
2023-07-12T03:55:54.868Z,26.95
2023-07-12T03:58:25.691Z,26.96
2023-07-12T04:00:54.143Z,26.95
2023-07-12T04:03:22.570Z,26.96
2023-07-12T04:05:53.803Z,26.99
2023-07-12T04:08:22.590Z,27.03
2023-07-12T04:10:54.997Z,27.05
2023-07-12T04:13:24.560Z,27.05
2023-07-12T04:15:55.320Z,27.08
2023-07-12T04:18:23.594Z,27.06
2023-07-12T04:20:52.198Z,27.07
2023-07-12T04:23:20.257Z,27.05
2023-07-12T04:25:48.280Z,27.04
2023-07-12T04:28:17.605Z,27.04
2023-07-12T04:30:45.721Z,27.03
2023-07-12T04:33:14.248Z,27.01
2023-07-12T04:35:42.318Z,27.00
2023-07-12T04:38:10.251Z,26.99
2023-07-12T04:40:38.201Z,26.98
2023-07-12T04:43:06.260Z,26.97
2023-07-12T04:45:35.973Z,26.96
2023-07-12T04:48:04.199Z,26.94
2023-07-12T04:50:34.453Z,26.93
2023-07-12T04:53:02.369Z,26.93
2023-07-12T04:55:30.367Z,26.93
2023-07-12T04:57:58.790Z,26.91
2023-07-12T05:00:27.298Z,26.91
2023-07-12T05:02:56.839Z,26.90
2023-07-12T05:05:25.150Z,26.90
2023-07-12T05:07:53.347Z,26.90
2023-07-12T05:10:21.385Z,26.91
2023-07-12T05:12:49.417Z,26.93
2023-07-12T05:15:18.047Z,26.97
2023-07-12T05:17:46.451Z,26.98
2023-07-12T05:20:17.980Z,27.05
2023-07-12T05:22:48.433Z,27.08
2023-07-12T05:25:17.123Z,27.12
2023-07-12T05:27:45.309Z,27.16
2023-07-12T05:30:13.855Z,27.17
2023-07-12T05:32:42.102Z,27.23
2023-07-12T05:35:10.742Z,27.19
2023-07-12T05:37:40.321Z,27.32
2023-07-12T05:40:11.170Z,27.35
2023-07-12T05:42:41.997Z,27.39
2023-07-12T05:45:14.016Z,27.42
2023-07-12T05:47:43.892Z,27.37
2023-07-12T05:50:18.350Z,27.52
2023-07-12T05:52:49.239Z,27.56
2023-07-12T05:55:19.969Z,27.61
2023-07-12T05:57:49.241Z,27.49
2023-07-12T06:00:19.180Z,27.70
2023-07-12T06:02:47.279Z,27.73
2023-07-12T06:05:15.247Z,27.76
2023-07-12T06:07:43.548Z,27.78
2023-07-12T06:10:13.476Z,27.81
2023-07-12T06:12:41.534Z,27.85
2023-07-12T06:15:10.846Z,27.88
2023-07-12T06:17:38.978Z,27.92
2023-07-12T06:20:08.956Z,27.95
2023-07-12T06:22:38.109Z,27.96
2023-07-12T06:25:08.577Z,27.95
2023-07-12T06:27:38.617Z,27.95
2023-07-12T06:30:07.665Z,27.94
2023-07-12T06:32:35.838Z,27.91
2023-07-12T06:35:04.421Z,27.88
2023-07-12T06:37:32.438Z,27.86
2023-07-12T06:40:00.689Z,27.87
2023-07-12T06:42:28.758Z,27.84
2023-07-12T06:44:58.213Z,27.83
2023-07-12T06:47:26.223Z,27.79
2023-07-12T06:49:54.959Z,27.79
2023-07-12T06:52:23.173Z,27.76
2023-07-12T06:54:51.173Z,27.75
2023-07-12T06:57:19.820Z,27.71
2023-07-12T06:59:47.855Z,27.68
2023-07-12T07:02:17.117Z,27.68
2023-07-12T07:04:45.054Z,27.65
2023-07-12T07:07:12.969Z,27.64
2023-07-12T07:09:41.095Z,27.61
2023-07-12T07:12:09.924Z,27.60
2023-07-12T07:14:37.943Z,27.57
2023-07-12T07:17:06.268Z,27.53
2023-07-12T07:19:35.645Z,27.53
2023-07-12T07:22:04.001Z,27.54
2023-07-12T07:24:32.082Z,27.53
2023-07-12T07:27:00.238Z,27.53
2023-07-12T07:29:28.387Z,27.53
2023-07-12T07:31:56.423Z,27.52
2023-07-12T07:34:24.488Z,27.52
2023-07-12T07:36:53.886Z,27.52
2023-07-12T07:39:22.056Z,27.52
2023-07-12T07:41:50.158Z,27.51
2023-07-12T07:44:18.209Z,27.50
2023-07-12T07:46:46.204Z,27.51
2023-07-12T07:49:14.302Z,27.50
2023-07-12T07:51:42.632Z,27.48
2023-07-12T07:54:11.999Z,27.52
2023-07-12T07:56:40.841Z,27.51
2023-07-12T07:59:08.832Z,27.52
2023-07-12T08:01:37.040Z,27.44
2023-07-12T08:04:06.998Z,27.52
2023-07-12T08:06:35.665Z,27.53
2023-07-12T08:09:04.137Z,27.55
2023-07-12T08:11:36.372Z,27.56
2023-07-12T08:14:04.993Z,27.57
2023-07-12T08:16:34.852Z,27.58
2023-07-12T08:19:12.103Z,27.56
2023-07-12T08:21:45.433Z,27.66
2023-07-12T08:24:13.397Z,27.69
2023-07-12T08:26:51.331Z,27.72
2023-07-12T08:29:22.815Z,27.75
2023-07-12T08:31:50.840Z,27.78
2023-07-12T08:34:18.936Z,27.82
2023-07-12T08:36:47.005Z,27.84
2023-07-12T08:39:15.152Z,27.87
2023-07-12T08:41:44.521Z,27.90
2023-07-12T08:44:15.526Z,27.91
2023-07-12T08:46:50.482Z,27.93
2023-07-12T08:49:20.307Z,27.91
2023-07-12T08:51:49.041Z,27.96
2023-07-12T08:54:24.363Z,27.96
2023-07-12T08:57:04.298Z,27.98
2023-07-12T08:59:33.741Z,27.99
2023-07-12T09:02:04.533Z,28.01
2023-07-12T09:04:33.709Z,28.02
2023-07-12T09:07:05.515Z,28.03
2023-07-12T09:09:38.024Z,28.03
2023-07-12T09:12:22.969Z,28.04
2023-07-12T09:14:54.953Z,28.05
2023-07-12T09:17:26.603Z,28.03
2023-07-12T09:19:54.642Z,28.03
2023-07-12T09:22:23.915Z,28.03
2023-07-12T09:24:57.633Z,28.03
2023-07-12T09:27:29.623Z,28.04
2023-07-12T09:30:02.703Z,28.04
2023-07-12T09:32:34.954Z,28.02
2023-07-12T09:35:04.228Z,27.98
2023-07-12T09:37:38.876Z,27.98
2023-07-12T09:40:17.407Z,28.03
2023-07-12T09:42:49.738Z,28.07
2023-07-12T09:45:17.928Z,28.11
2023-07-12T09:47:57.663Z,28.20
2023-07-12T09:50:33.745Z,28.25
2023-07-12T09:53:05.642Z,28.33
2023-07-12T09:55:41.319Z,28.39
2023-07-12T09:58:32.285Z,28.42
2023-07-12T10:01:05.154Z,28.51
2023-07-12T10:03:38.910Z,28.58
2023-07-12T10:06:16.590Z,28.61
2023-07-12T10:08:51.757Z,28.65
2023-07-12T10:11:30.223Z,28.67
2023-07-12T10:14:04.743Z,28.69
2023-07-12T10:16:36.933Z,28.70
2023-07-12T10:19:15.490Z,28.72
2023-07-12T10:21:43.708Z,28.72
2023-07-12T10:24:16.383Z,28.74
2023-07-12T10:26:45.754Z,28.75
2023-07-12T10:29:21.514Z,28.76
2023-07-12T10:31:55.128Z,28.76
2023-07-12T10:34:30.934Z,28.77
2023-07-12T10:37:06.278Z,28.77
2023-07-12T10:39:34.381Z,28.78
2023-07-12T10:42:07.718Z,28.79
2023-07-12T10:44:41.938Z,28.81
2023-07-12T10:47:16.863Z,28.80
2023-07-12T10:49:47.313Z,28.77
2023-07-12T10:52:30.092Z,28.81
2023-07-12T10:55:20.508Z,28.81
2023-07-12T10:57:51.212Z,28.81
2023-07-12T11:00:26.664Z,28.81
2023-07-12T11:03:17.717Z,28.79
2023-07-12T11:05:48.909Z,28.78
2023-07-12T11:08:54.713Z,28.87
2023-07-12T11:11:45.847Z,28.80
2023-07-12T11:14:28.099Z,28.78
2023-07-12T11:17:16.682Z,28.77
2023-07-12T11:20:04.673Z,28.77
2023-07-12T11:22:59.454Z,28.76
2023-07-12T11:25:58.985Z,28.75
2023-07-12T11:28:31.051Z,28.74
2023-07-12T11:31:28.262Z,28.75
2023-07-12T11:34:07.109Z,28.73
2023-07-12T11:36:37.233Z,28.73
2023-07-12T11:39:14.776Z,28.73
2023-07-12T11:41:53.771Z,28.71
2023-07-12T11:44:21.778Z,28.72
2023-07-12T11:46:52.734Z,28.73
2023-07-12T11:49:25.618Z,28.71
2023-07-12T11:51:57.669Z,28.69
2023-07-12T11:54:27.637Z,28.70
2023-07-12T11:56:59.717Z,28.72
2023-07-12T11:59:33.939Z,28.74
2023-07-12T12:02:06.700Z,28.74
2023-07-12T12:04:36.286Z,28.74
2023-07-12T12:07:13.190Z,28.74
2023-07-12T12:09:41.411Z,28.73
2023-07-12T12:12:10.549Z,28.72
2023-07-12T12:14:42.234Z,28.73
2023-07-12T12:17:16.398Z,28.73
2023-07-12T12:19:51.269Z,28.71
2023-07-12T12:22:25.581Z,28.71
2023-07-12T12:24:57.571Z,28.71
2023-07-12T12:27:34.053Z,28.71
2023-07-12T12:30:10.398Z,28.70
2023-07-12T12:32:41.114Z,28.69
2023-07-12T12:35:15.413Z,28.69
2023-07-12T12:37:56.021Z,28.69
2023-07-12T12:40:24.340Z,28.67
2023-07-12T12:43:00.833Z,28.69
2023-07-12T12:45:33.110Z,28.67
2023-07-12T12:48:10.759Z,28.67
2023-07-12T12:53:32.355Z,28.70
2023-07-12T13:06:21.610Z,28.69
2023-07-12T13:21:45.765Z,28.68
2023-07-12T13:24:13.813Z,28.65
2023-07-12T13:26:43.389Z,28.68
2023-07-12T13:29:21.413Z,28.67
2023-07-12T13:31:49.439Z,28.66
2023-07-12T13:34:19.128Z,28.67
2023-07-12T13:36:51.010Z,28.67
2023-07-12T13:46:55.108Z,28.67
2023-07-12T13:49:23.233Z,28.68
2023-07-12T13:51:52.647Z,28.68
2023-07-12T13:54:22.141Z,28.63
2023-07-12T13:56:50.582Z,28.68
2023-07-12T13:59:19.920Z,28.69
2023-07-12T14:02:51.854Z,28.69
2023-07-12T14:04:50.134Z,28.66
2023-07-12T14:08:08.281Z,28.68
2023-07-12T14:10:18.090Z,28.68
2023-07-12T14:12:48.471Z,28.67
2023-07-12T14:15:19.709Z,28.67
2023-07-12T14:17:48.717Z,28.68
2023-07-12T14:20:17.405Z,28.67
2023-07-12T14:22:46.950Z,28.66
2023-07-12T14:25:20.042Z,28.68
2023-07-12T14:27:48.780Z,28.67
2023-07-12T14:32:50.063Z,28.67
2023-07-12T14:35:23.247Z,28.69
2023-07-12T14:37:52.706Z,28.67
2023-07-12T14:40:22.295Z,28.65
2023-07-12T14:42:50.301Z,28.67
2023-07-12T14:45:22.493Z,28.68
2023-07-12T14:47:51.274Z,28.67
2023-07-12T14:50:21.463Z,28.66
2023-07-12T14:52:49.998Z,28.66
2023-07-12T14:55:20.463Z,28.67
2023-07-12T15:00:21.042Z,28.62
2023-07-12T15:02:53.638Z,28.65
2023-07-12T15:05:22.107Z,28.65
2023-07-12T15:07:50.193Z,28.65
2023-07-12T15:10:20.570Z,28.66
2023-07-12T15:12:51.187Z,28.65
2023-07-12T15:15:22.609Z,28.64
2023-07-12T15:17:54.544Z,28.47
2023-07-12T15:20:25.207Z,28.63
2023-07-12T15:22:53.629Z,28.64
2023-07-12T15:25:25.714Z,28.63
2023-07-12T15:27:55.016Z,28.61
2023-07-12T15:30:27.675Z,28.44
2023-07-12T15:32:57.323Z,28.59
2023-07-12T15:35:31.714Z,28.58
2023-07-12T15:38:01.524Z,28.58
2023-07-12T15:40:56.435Z,28.57
2023-07-12T15:43:27.811Z,28.57
2023-07-12T15:45:57.864Z,28.56
2023-07-12T15:48:27.885Z,28.55
2023-07-12T15:51:00.094Z,28.57
2023-07-12T15:53:28.345Z,28.53
2023-07-12T15:55:57.706Z,28.55
2023-07-12T15:58:28.448Z,28.54
2023-07-12T16:00:58.809Z,28.55
2023-07-12T16:03:29.168Z,28.53
2023-07-12T16:05:58.069Z,28.52
2023-07-12T16:08:27.371Z,28.50
2023-07-12T16:10:58.905Z,28.49
2023-07-12T16:13:29.537Z,28.46
2023-07-12T16:15:57.976Z,28.39
2023-07-12T16:18:28.014Z,28.44
2023-07-12T16:20:58.733Z,28.42
2023-07-12T16:23:33.368Z,28.41
2023-07-12T16:26:04.021Z,28.40
2023-07-12T16:28:33.598Z,28.37
2023-07-12T16:31:02.194Z,28.37
2023-07-12T16:33:32.787Z,28.37
2023-07-12T16:36:00.732Z,28.36
2023-07-12T16:38:30.201Z,28.36
2023-07-12T16:40:59.754Z,28.36
2023-07-12T16:43:30.992Z,28.35
2023-07-12T16:46:00.161Z,28.20
2023-07-12T16:48:28.245Z,28.33
2023-07-12T16:50:56.466Z,28.34
2023-07-12T16:53:32.293Z,28.34
2023-07-12T16:56:01.908Z,28.33
2023-07-12T16:58:31.851Z,28.32
2023-07-12T17:01:01.737Z,28.24
2023-07-12T17:03:34.234Z,28.31
2023-07-12T17:06:02.837Z,28.30
2023-07-12T17:08:30.996Z,28.31
2023-07-12T17:11:01.068Z,28.31
2023-07-12T17:13:29.140Z,28.31
2023-07-12T17:15:58.638Z,28.31
2023-07-12T17:18:26.639Z,28.32
2023-07-12T17:20:57.121Z,28.32
2023-07-12T17:23:28.567Z,28.33
2023-07-12T17:25:59.576Z,28.31
2023-07-12T17:28:30.271Z,28.32
2023-07-12T17:31:03.718Z,28.29
2023-07-12T17:33:31.978Z,28.30
2023-07-12T17:36:00.368Z,28.30
2023-07-12T17:38:28.779Z,28.30
2023-07-12T17:40:58.146Z,28.30
2023-07-12T17:43:32.064Z,28.31
2023-07-12T17:46:01.477Z,28.29
2023-07-12T17:48:29.446Z,28.28
2023-07-12T17:50:59.918Z,28.27
2023-07-12T17:53:28.389Z,28.27
2023-07-12T17:55:58.185Z,28.26
2023-07-12T17:58:28.672Z,28.26
2023-07-12T18:00:57.914Z,28.25
2023-07-12T18:03:29.547Z,28.25
2023-07-12T18:05:57.684Z,28.24
2023-07-12T18:08:25.756Z,28.24
2023-07-12T18:10:56.494Z,28.24
2023-07-12T18:13:26.528Z,28.22
2023-07-12T18:15:55.336Z,28.23
2023-07-12T18:18:23.415Z,28.24
2023-07-12T18:20:54.098Z,28.23
2023-07-12T18:23:24.599Z,28.23
2023-07-12T18:25:54.018Z,28.22
2023-07-12T18:28:23.072Z,28.19
2023-07-12T18:30:55.844Z,28.22
2023-07-12T18:33:25.755Z,28.22
2023-07-12T18:35:56.134Z,28.05
2023-07-12T18:38:24.402Z,28.18
2023-07-12T18:40:52.502Z,28.23
2023-07-12T18:43:22.946Z,28.22
2023-07-12T18:45:51.112Z,28.22
2023-07-12T18:48:19.750Z,28.19
2023-07-12T18:50:49.244Z,28.19
2023-07-12T18:53:21.455Z,28.16
2023-07-12T18:55:49.504Z,28.16
2023-07-12T18:58:18.470Z,28.14
2023-07-12T19:00:48.093Z,28.13
2023-07-12T19:03:33.774Z,28.12
2023-07-12T19:06:03.093Z,28.08
2023-07-12T19:08:33.466Z,28.07
2023-07-12T19:11:01.440Z,28.06
2023-07-12T19:13:29.373Z,28.04
2023-07-12T19:16:00.305Z,28.01
2023-07-12T19:18:28.864Z,28.00
2023-07-12T19:20:56.890Z,27.96
2023-07-12T19:23:25.122Z,27.95
2023-07-12T19:25:54.710Z,27.96
2023-07-12T19:28:22.744Z,27.94
2023-07-12T19:30:52.202Z,27.93
2023-07-12T19:33:20.893Z,27.90
2023-07-12T19:35:50.719Z,27.89
2023-07-12T19:38:18.719Z,27.89
2023-07-12T19:40:46.710Z,27.88
2023-07-12T19:43:16.139Z,27.85
2023-07-12T19:45:44.110Z,27.87
2023-07-12T19:48:14.812Z,27.85
2023-07-12T19:50:43.696Z,27.85
2023-07-12T19:53:27.081Z,27.67
2023-07-12T19:55:56.166Z,27.82
2023-07-12T19:58:29.943Z,27.80
2023-07-12T20:00:58.054Z,27.79
2023-07-12T20:03:26.179Z,27.79
2023-07-12T20:08:23.626Z,27.75
2023-07-12T20:10:51.625Z,27.70
2023-07-12T20:13:19.669Z,27.72
2023-07-12T20:15:51.980Z,27.70
2023-07-12T20:18:20.492Z,27.70
2023-07-12T20:20:51.652Z,27.68
2023-07-12T20:23:20.421Z,27.67
2023-07-12T20:25:50.457Z,27.60
2023-07-12T20:28:19.469Z,27.63
2023-07-12T20:30:49.306Z,27.62
2023-07-12T20:33:22.484Z,27.62
2023-07-12T20:35:51.324Z,27.59
2023-07-12T20:38:19.483Z,27.58
2023-07-12T20:40:47.969Z,27.56
2023-07-12T20:43:15.966Z,27.54
2023-07-12T20:45:44.165Z,27.52
2023-07-12T20:48:14.365Z,27.53
2023-07-12T20:50:47.718Z,27.44
2023-07-12T20:53:15.852Z,27.50
2023-07-12T20:55:43.796Z,27.49
2023-07-12T20:58:12.098Z,27.49
2023-07-12T21:00:49.391Z,27.37
2023-07-12T21:03:18.773Z,27.45
2023-07-12T21:05:48.411Z,27.47
2023-07-12T21:08:16.467Z,27.45
2023-07-12T21:10:44.475Z,27.46
2023-07-12T21:13:12.469Z,27.45
2023-07-12T21:15:43.777Z,27.26
2023-07-12T21:18:11.978Z,27.46
2023-07-12T21:20:40.100Z,27.45
2023-07-12T21:23:09.532Z,27.48
2023-07-12T21:25:37.586Z,27.47
2023-07-12T21:28:05.854Z,27.47
2023-07-12T21:30:33.937Z,27.47
2023-07-12T21:33:02.121Z,27.46
2023-07-12T21:35:30.976Z,27.45
2023-07-12T21:37:59.137Z,27.45
2023-07-12T21:40:28.548Z,27.47
2023-07-12T21:42:56.684Z,27.46
2023-07-12T21:45:24.858Z,27.47
2023-07-12T21:47:52.890Z,27.47
2023-07-12T21:50:20.978Z,27.35
2023-07-12T21:52:49.336Z,27.49
2023-07-12T21:55:17.639Z,27.49
2023-07-12T21:57:47.151Z,27.51
2023-07-12T22:00:21.590Z,27.50
2023-07-12T22:02:50.968Z,27.50
2023-07-12T22:05:19.927Z,27.51
2023-07-12T22:07:55.057Z,27.51
2023-07-12T22:10:25.989Z,27.50
2023-07-12T22:12:55.661Z,27.53
2023-07-12T22:15:23.968Z,27.52
2023-07-12T22:17:52.802Z,27.51
2023-07-12T22:20:22.938Z,27.33
2023-07-12T22:22:52.060Z,27.52
2023-07-12T22:25:20.571Z,27.51
2023-07-12T22:27:48.956Z,27.49
2023-07-12T22:30:27.699Z,27.52
2023-07-12T22:32:56.274Z,27.50
2023-07-12T22:35:25.106Z,27.51
2023-07-12T22:37:54.426Z,27.50
2023-07-12T22:40:26.991Z,27.50
2023-07-12T22:42:55.338Z,27.50
2023-07-12T22:45:25.752Z,27.52
2023-07-12T22:47:53.865Z,27.50
2023-07-12T22:50:22.097Z,27.50
2023-07-12T22:52:50.493Z,27.49
2023-07-12T22:55:19.023Z,27.49
2023-07-12T22:57:47.273Z,27.49
2023-07-12T23:00:17.496Z,27.47
2023-07-12T23:02:47.019Z,27.48
2023-07-12T23:05:16.746Z,27.47
2023-07-12T23:07:48.133Z,27.46
2023-07-12T23:10:17.352Z,27.45
2023-07-12T23:12:45.597Z,27.43
2023-07-12T23:15:15.360Z,27.42
2023-07-12T23:17:45.911Z,27.41
2023-07-12T23:20:17.205Z,27.42
2023-07-12T23:22:45.352Z,27.42
2023-07-12T23:25:26.572Z,27.41
2023-07-12T23:27:56.144Z,27.40
2023-07-12T23:30:25.197Z,27.39
2023-07-12T23:32:54.155Z,27.38
2023-07-12T23:35:23.609Z,27.39
2023-07-12T23:37:51.968Z,27.38
2023-07-12T23:40:19.931Z,27.38
2023-07-12T23:42:47.918Z,27.37
2023-07-12T23:45:15.969Z,27.35
2023-07-12T23:47:44.146Z,27.37
2023-07-12T23:50:12.914Z,27.36
2023-07-12T23:52:42.677Z,27.36
2023-07-12T23:55:11.332Z,27.35
2023-07-12T23:57:39.978Z,27.34
